Time;durP1;ratioP1;P1;durP2;ratioP2;P2;SDS_P1;SDS_P2;PMS_P1;PMS_P2;Temp;Humidity;BMP_temperature;BMP_pressure;BME280_temperature;BME280_humidity;BME280_pressure;Samples;Min_cycle;Max_cycle;Signal;HPM_P1;HPM_P2
2022/09/09 00:00:17;;;;;;;3.78;1.90;;;;;;;6.07;100.00;100052.75;5172198;27;20102;-48
2022/09/09 00:02:54;;;;;;;4.03;1.80;;;;;;;6.16;100.00;100044.59;5172538;27;20042;-48
2022/09/09 00:05:29;;;;;;;2.67;1.80;;;;;;;5.99;100.00;100020.03;5172159;27;20046;-48
2022/09/09 00:08:00;;;;;;;6.22;2.22;;;;;;;6.03;100.00;100046.31;5172434;27;20141;-51
2022/09/09 00:10:30;;;;;;;2.58;1.80;;;;;;;5.90;100.00;100066.22;5172054;27;20527;-48
2022/09/09 00:13:04;;;;;;;3.83;1.75;;;;;;;6.00;100.00;100076.88;5172078;27;20069;-47
2022/09/09 00:15:34;;;;;;;;;;;;;;;6.10;100.00;100046.66;5172435;27;20042;-52
2022/09/09 00:18:14;;;;;;;4.10;1.88;;;;;;;6.02;100.00;100017.47;5172391;27;20037;-49
2022/09/09 00:20:48;;;;;;;9.32;2.28;;;;;;;6.06;100.00;100025.81;5172201;27;20046;-47
2022/09/09 00:23:24;;;;;;;1.98;1.70;;;;;;;6.06;100.00;100004.03;5172310;27;20057;-48
2022/09/09 00:25:59;;;;;;;6.07;2.17;;;;;;;5.90;100.00;100009.88;5172349;27;20054;-48
2022/09/09 00:28:30;;;;;;;2.97;1.65;;;;;;;5.89;100.00;100034.66;5171849;27;20058;-48
2022/09/09 00:31:02;;;;;;;4.38;1.85;;;;;;;5.91;100.00;100062.38;5172444;27;20054;-50
2022/09/09 00:33:30;;;;;;;3.00;1.90;;;;;;;5.85;100.00;100056.25;5172065;27;20042;-48
2022/09/09 00:35:58;;;;;;;3.58;1.85;;;;;;;5.94;100.00;100066.44;5171818;27;20086;-48
2022/09/09 00:38:32;;;;;;;5.30;2.30;;;;;;;5.70;100.00;100039.50;5171885;27;20082;-48
2022/09/09 00:41:07;;;;;;;2.50;1.58;;;;;;;5.87;100.00;100078.53;5171911;27;20054;-48
2022/09/09 00:43:36;;;;;;;5.20;2.25;;;;;;;5.95;100.00;100055.22;5171987;27;20520;-49
2022/09/09 00:46:30;;;;;;;4.45;1.80;;;;;;;5.93;100.00;100041.16;5171758;27;20054;-52
2022/09/09 00:49:04;;;;;;;2.27;1.47;;;;;;;5.80;100.00;100028.41;5171583;27;20493;-52
2022/09/09 00:51:44;;;;;;;4.55;1.75;;;;;;;5.84;100.00;100062.03;5171774;27;20054;-48
2022/09/09 00:54:34;;;;;;;3.55;1.90;;;;;;;5.29;100.00;100092.16;5171475;27;20501;-50
2022/09/09 00:57:14;;;;;;;4.28;2.20;;;;;;;5.58;100.00;100165.22;5171838;27;20610;-50
2022/09/09 00:59:47;;;;;;;6.13;2.08;;;;;;;5.48;100.00;100174.41;5171568;27;20517;-51
2022/09/09 01:02:22;;;;;;;5.00;1.52;;;;;;;5.53;100.00;100198.78;5171724;27;20053;-48
2022/09/09 01:04:48;;;;;;;2.50;1.50;;;;;;;5.23;100.00;100235.59;5171642;27;20473;-48
2022/09/09 01:07:17;;;;;;;4.55;1.85;;;;;;;5.58;100.00;100252.25;5171367;27;20046;-48
2022/09/09 01:09:52;;;;;;;3.08;1.80;;;;;;;5.38;100.00;100227.09;5173855;27;20137;-48
2022/09/09 01:12:25;;;;;;;2.38;1.58;;;;;;;5.40;100.00;100235.78;5174940;27;20042;-49
2022/09/09 01:14:56;;;;;;;3.10;1.60;;;;;;;5.49;100.00;100227.69;5175083;27;20051;-48
2022/09/09 01:17:28;;;;;;;3.00;1.63;;;;;;;5.57;100.00;100224.25;5174862;27;20540;-48
2022/09/09 01:20:06;;;;;;;5.13;1.85;;;;;;;5.48;100.00;100226.09;5175345;27;20057;-48
2022/09/09 01:22:40;;;;;;;1.73;1.40;;;;;;;5.49;100.00;100251.38;5174702;27;20141;-49
2022/09/09 01:25:20;;;;;;;4.32;2.53;;;;;;;5.53;100.00;100236.88;5174776;27;20145;-52
2022/09/09 01:27:48;;;;;;;5.55;1.92;;;;;;;5.31;100.00;100229.44;5174852;27;20050;-48
2022/09/09 01:30:17;;;;;;;4.72;1.55;;;;;;;5.48;100.00;100236.16;5174623;27;20047;-50
2022/09/09 01:32:45;;;;;;;7.97;2.35;;;;;;;5.37;100.00;100239.09;5174798;27;20047;-49
2022/09/09 01:35:18;;;;;;;6.00;1.85;;;;;;;5.34;100.00;100266.09;5174483;27;20106;-48
2022/09/09 01:37:45;;;;;;;3.80;1.85;;;;;;;5.26;100.00;100277.66;5174856;27;20469;-50
2022/09/09 01:40:11;;;;;;;1.83;1.70;;;;;;;5.27;100.00;100282.00;5174579;27;20050;-48
2022/09/09 01:42:37;;;;;;;3.47;1.70;;;;;;;5.38;100.00;100265.19;5174553;27;20046;-48
2022/09/09 01:45:05;;;;;;;2.72;1.65;;;;;;;5.10;100.00;100267.09;5174355;27;20058;-47
2022/09/09 01:47:31;;;;;;;2.58;1.70;;;;;;;5.26;100.00;100278.47;5174531;27;20057;-47
2022/09/09 01:49:59;;;;;;;2.28;1.80;;;;;;;5.20;100.00;100271.53;5174616;27;20053;-47
2022/09/09 01:52:25;;;;;;;2.13;1.73;;;;;;;5.15;100.00;100264.25;5174414;27;20105;-51
2022/09/09 01:54:52;;;;;;;6.68;1.92;;;;;;;5.16;100.00;100270.50;5174380;27;20063;-47
2022/09/09 01:57:24;;;;;;;2.83;1.85;;;;;;;5.17;100.00;100274.84;5174341;27;20050;-48
2022/09/09 02:00:06;;;;;;;2.53;1.77;;;;;;;5.08;100.00;100273.94;5174723;27;20046;-49
2022/09/09 02:02:39;;;;;;;3.05;1.55;;;;;;;5.10;100.00;100288.03;5174314;27;20073;-50
2022/09/09 02:05:17;;;;;;;4.05;1.55;;;;;;;4.90;100.00;100290.03;5174773;27;20379;-50
2022/09/09 02:07:48;;;;;;;1.98;1.48;;;;;;;5.13;100.00;100320.03;5174098;27;20050;-49
2022/09/09 02:10:17;;;;;;;2.45;1.80;;;;;;;5.11;100.00;100305.97;5173884;27;20489;-47
2022/09/09 02:12:47;;;;;;;2.33;1.58;;;;;;;4.97;100.00;100313.28;5174256;27;20082;-48
2022/09/09 02:15:22;;;;;;;2.58;1.70;;;;;;;4.97;100.00;100330.41;5173864;27;20505;-48
2022/09/09 02:17:52;;;;;;;1.65;1.50;;;;;;;5.04;100.00;100328.09;5173992;27;20046;-49
2022/09/09 02:20:20;;;;;;;2.28;1.75;;;;;;;5.09;100.00;100340.78;5172653;27;20050;-48
2022/09/09 02:22:49;;;;;;;4.75;1.85;;;;;;;5.00;100.00;100348.81;5174092;27;20050;-47
2022/09/09 02:25:20;;;;;;;2.58;1.80;;;;;;;5.08;100.00;100339.97;5173781;27;20532;-48
2022/09/09 02:27:49;;;;;;;3.42;1.45;;;;;;;4.91;100.00;100347.91;5173974;27;20097;-48
2022/09/09 02:30:16;;;;;;;3.65;1.50;;;;;;;4.90;100.00;100349.00;5173689;27;20058;-49
2022/09/09 02:32:44;;;;;;;3.40;1.90;;;;;;;4.95;100.00;100357.84;5173475;27;20061;-49
2022/09/09 02:35:14;;;;;;;3.03;1.90;;;;;;;4.76;100.00;100348.94;5173618;27;20042;-47
2022/09/09 02:37:42;;;;;;;4.50;2.28;;;;;;;4.76;100.00;100351.66;5173768;27;20046;-47
2022/09/09 02:40:11;;;;;;;3.85;1.73;;;;;;;4.75;100.00;100350.06;5173577;27;20046;-48
2022/09/09 02:42:40;;;;;;;4.72;1.83;;;;;;;4.76;100.00;100354.38;5173348;27;20046;-48
2022/09/09 02:45:08;;;;;;;6.28;1.90;;;;;;;4.66;100.00;100352.63;5173978;27;20412;-49
2022/09/09 02:47:38;;;;;;;2.40;1.95;;;;;;;4.90;100.00;100351.72;5173417;27;20137;-52
2022/09/09 02:50:12;;;;;;;3.13;1.60;;;;;;;5.01;100.00;100345.00;5173673;27;20137;-49
2022/09/09 02:52:47;;;;;;;2.90;1.70;;;;;;;4.90;100.00;100351.72;5173336;27;20129;-49
2022/09/09 02:55:21;;;;;;;3.45;1.58;;;;;;;4.95;100.00;100351.63;5173075;27;20050;-47
2022/09/09 02:57:49;;;;;;;4.18;2.78;;;;;;;5.06;100.00;100361.19;5173520;27;20050;-48
2022/09/09 03:00:15;;;;;;;2.85;1.67;;;;;;;5.00;100.00;100346.13;5173125;27;20050;-51
2022/09/09 03:02:42;;;;;;;5.95;2.08;;;;;;;4.89;100.00;100344.66;5173465;27;20049;-48
2022/09/09 03:05:08;;;;;;;3.00;1.98;;;;;;;4.93;100.00;100345.66;5173343;27;20054;-47
2022/09/09 03:07:35;;;;;;;5.03;1.80;;;;;;;4.85;100.00;100347.16;5173271;27;20184;-47
2022/09/09 03:10:01;;;;;;;5.60;2.03;;;;;;;4.77;100.00;100353.28;5173124;27;20046;-49
2022/09/09 03:12:28;;;;;;;3.05;1.90;;;;;;;4.58;100.00;100356.03;5173408;27;20057;-48
2022/09/09 03:14:54;;;;;;;2.33;1.73;;;;;;;4.74;100.00;100359.31;5172854;27;20421;-49
2022/09/09 03:17:20;;;;;;;3.03;1.98;;;;;;;4.52;100.00;100364.53;5173231;27;20046;-49
2022/09/09 03:19:49;;;;;;;2.30;1.98;;;;;;;4.55;100.00;100370.19;5172933;27;20054;-47
2022/09/09 03:22:15;;;;;;;1.80;1.58;;;;;;;4.70;100.00;100367.25;5172990;27;20523;-47
2022/09/09 03:24:42;;;;;;;4.18;1.90;;;;;;;4.61;100.00;100371.75;5172857;27;20042;-47
2022/09/09 03:27:08;;;;;;;4.68;1.77;;;;;;;4.30;100.00;100370.56;5172709;27;20045;-47
2022/09/09 03:29:35;;;;;;;2.78;1.90;;;;;;;4.58;100.00;100368.81;5172901;27;20046;-47
2022/09/09 03:32:01;;;;;;;3.38;2.22;;;;;;;4.71;100.00;100381.63;5172554;27;20050;-48
2022/09/09 03:34:27;;;;;;;2.28;1.70;;;;;;;4.26;100.00;100383.91;5172577;27;20505;-48
2022/09/09 03:36:54;;;;;;;3.78;1.88;;;;;;;4.61;100.00;100387.22;5173027;27;20054;-47
2022/09/09 03:39:20;;;;;;;5.15;2.15;;;;;;;4.24;100.00;100392.38;5172898;27;20046;-49
2022/09/09 03:41:48;;;;;;;5.05;1.60;;;;;;;4.29;100.00;100394.19;5172481;27;20092;-47
2022/09/09 03:44:14;;;;;;;5.65;2.40;;;;;;;4.45;100.00;100386.66;5172722;27;20057;-49
2022/09/09 03:46:40;;;;;;;3.65;2.40;;;;;;;4.32;100.00;100384.66;5172601;27;20095;-47
2022/09/09 03:49:06;;;;;;;5.88;2.30;;;;;;;4.28;100.00;100392.59;5172618;27;20046;-47
2022/09/09 03:51:36;;;;;;;2.85;2.30;;;;;;;4.09;100.00;100383.63;5172820;27;20050;-46
2022/09/09 03:54:04;;;;;;;4.32;2.33;;;;;;;4.30;100.00;100384.13;5172497;27;20136;-48
2022/09/09 03:56:31;;;;;;;3.55;1.75;;;;;;;4.52;100.00;100403.38;5172727;27;20042;-48
2022/09/09 03:58:58;;;;;;;3.63;2.42;;;;;;;4.40;100.00;100411.97;5172550;27;20053;-46
2022/09/09 04:01:24;;;;;;;7.63;3.20;;;;;;;4.47;100.00;100412.41;5172354;27;20057;-47
2022/09/09 04:03:51;;;;;;;6.28;2.80;;;;;;;4.50;100.00;100397.44;5172194;27;20098;-47
2022/09/09 04:06:18;;;;;;;6.68;2.47;;;;;;;4.50;100.00;100394.72;5172173;27;20490;-47
2022/09/09 04:08:44;;;;;;;4.47;2.45;;;;;;;4.98;100.00;100394.50;5172690;27;20053;-46
2022/09/09 04:11:11;;;;;;;4.03;2.28;;;;;;;5.84;100.00;100400.28;5172564;27;20050;-47
2022/09/09 04:13:39;;;;;;;10.10;2.85;;;;;;;6.50;100.00;100346.31;5172068;27;20061;-49
2022/09/09 04:16:06;;;;;;;2.75;2.03;;;;;;;7.42;100.00;100199.38;5172000;27;20046;-47
2022/09/09 04:18:32;;;;;;;3.03;2.17;;;;;;;7.95;100.00;99924.44;5172467;27;20046;-47
2022/09/09 04:20:59;;;;;;;8.52;2.38;;;;;;;8.64;100.00;99537.88;5172246;27;20046;-47
2022/09/09 04:23:27;;;;;;;5.50;2.47;;;;;;;9.06;100.00;99228.53;5172249;27;20050;-47
2022/09/09 04:25:54;;;;;;;4.15;2.38;;;;;;;9.21;100.00;99049.97;5171948;27;20050;-47
2022/09/09 04:28:23;;;;;;;4.53;2.15;;;;;;;8.77;100.00;98998.25;5172368;27;20046;-47
2022/09/09 04:30:50;;;;;;;9.25;2.13;;;;;;;8.65;100.00;98996.41;5171848;27;20421;-47
2022/09/09 04:33:17;;;;;;;4.18;1.90;;;;;;;8.80;100.00;98994.78;5171877;27;20055;-51
2022/09/09 04:35:46;;;;;;;2.70;1.98;;;;;;;9.50;100.00;98982.16;5171796;27;20103;-47
2022/09/09 04:38:13;;;;;;;3.85;2.10;;;;;;;9.45;100.00;98971.50;5172094;27;20050;-48
2022/09/09 04:40:42;;;;;;;5.85;1.92;;;;;;;10.42;100.00;98985.72;5171960;27;20053;-50
2022/09/09 04:43:08;;;;;;;2.83;1.98;;;;;;;10.65;100.00;99004.84;5171735;27;20050;-51
2022/09/09 04:45:35;;;;;;;5.20;1.98;;;;;;;11.40;100.00;99027.03;5175574;27;20050;-49
2022/09/09 04:48:02;;;;;;;4.90;2.20;;;;;;;11.13;100.00;99081.97;5175097;27;20049;-50
2022/09/09 04:50:28;;;;;;;2.53;2.33;;;;;;;10.76;100.00;99082.59;5175369;27;20078;-48
2022/09/09 04:52:55;;;;;;;5.05;1.90;;;;;;;10.57;100.00;99031.38;5175167;27;20042;-51
2022/09/09 04:55:21;;;;;;;2.85;1.88;;;;;;;10.28;100.00;99056.72;5175111;27;20053;-49
2022/09/09 04:57:48;;;;;;;5.18;1.80;;;;;;;11.54;100.00;99069.19;5175327;27;20106;-49
2022/09/09 05:00:16;;;;;;;3.58;1.92;;;;;;;11.84;100.00;99112.31;5174941;27;20045;-51
2022/09/09 05:02:43;;;;;;;3.38;2.10;;;;;;;11.84;100.00;99188.41;5175083;27;20046;-51
2022/09/09 05:05:11;;;;;;;9.45;2.60;;;;;;;11.64;100.00;99166.56;5175232;27;20489;-48
2022/09/09 05:07:38;;;;;;;2.63;1.50;;;;;;;12.11;100.00;99167.97;5175113;27;20465;-50
2022/09/09 05:10:05;;;;;;;6.43;2.38;;;;;;;12.23;100.00;99195.22;5175100;27;20133;-49
2022/09/09 05:12:32;;;;;;;10.00;1.85;;;;;;;12.28;100.00;99179.56;5174951;27;20057;-48
2022/09/09 05:14:58;;;;;;;2.20;1.60;;;;;;;12.08;100.00;99242.91;5174801;27;20057;-50
2022/09/09 05:17:24;;;;;;;2.83;1.63;;;;;;;11.66;100.00;99111.28;5174913;27;20493;-50
2022/09/09 05:19:50;;;;;;;5.05;2.00;;;;;;;11.83;100.00;99143.69;5174624;27;20158;-48
2022/09/09 05:22:20;;;;;;;2.38;1.50;;;;;;;10.59;100.00;99085.81;5174613;27;20195;-51
2022/09/09 05:24:48;;;;;;;4.10;1.05;;;;;;;10.87;100.00;99074.53;5174735;27;20050;-48
2022/09/09 05:27:14;;;;;;;1.58;1.30;;;;;;;12.51;100.00;99138.94;5174641;27;20199;-51
2022/09/09 05:29:41;;;;;;;3.28;1.95;;;;;;;12.70;100.00;99166.25;5174588;27;20042;-51
2022/09/09 05:32:08;;;;;;;1.75;1.25;;;;;;;13.51;100.00;99221.56;5174780;27;20053;-47
2022/09/09 05:34:34;;;;;;;5.18;1.55;;;;;;;13.82;100.00;99267.03;5174391;27;20046;-51
2022/09/09 05:37:00;;;;;;;3.05;1.67;;;;;;;12.83;100.00;99213.53;5174723;27;20138;-52
2022/09/09 05:39:27;;;;;;;3.25;1.40;;;;;;;13.65;100.00;99243.69;5174739;27;20050;-54
2022/09/09 05:41:55;;;;;;;9.38;1.50;;;;;;;13.19;100.00;99307.41;5174393;27;20046;-53
2022/09/09 05:44:23;;;;;;;4.43;1.48;;;;;;;13.65;100.00;99326.34;5174656;27;20103;-53
2022/09/09 05:46:49;;;;;;;2.90;1.70;;;;;;;14.47;100.00;99328.84;5174309;27;20053;-54
2022/09/09 05:49:15;;;;;;;1.55;1.20;;;;;;;14.30;100.00;99338.59;5174562;27;20512;-52
2022/09/09 05:51:42;;;;;;;1.33;1.23;;;;;;;14.73;100.00;99356.19;5174296;27;20057;-53
2022/09/09 05:54:08;;;;;;;2.35;1.55;;;;;;;14.05;100.00;99341.97;5173945;27;20226;-50
2022/09/09 05:56:35;;;;;;;5.38;1.75;;;;;;;15.33;100.00;99368.59;5174041;27;20046;-52
2022/09/09 05:59:02;;;;;;;3.70;2.00;;;;;;;16.29;100.00;99453.56;5174571;27;20046;-55
2022/09/09 06:01:30;;;;;;;3.50;2.00;;;;;;;15.50;100.00;99428.59;5174019;27;20054;-55
2022/09/09 06:03:56;;;;;;;2.30;1.67;;;;;;;14.35;100.00;99396.13;5174224;27;20485;-55
2022/09/09 06:06:25;;;;;;;4.13;1.73;;;;;;;14.62;100.00;99373.84;5174052;27;20046;-53
2022/09/09 06:08:54;;;;;;;3.08;1.38;;;;;;;14.73;100.00;99405.06;5174014;27;20050;-53
2022/09/09 06:11:22;;;;;;;3.53;1.52;;;;;;;14.71;100.00;99402.69;5174079;27;20057;-53
2022/09/09 06:13:51;;;;;;;1.85;0.88;;;;;;;14.55;100.00;99422.28;5173788;27;20402;-54
2022/09/09 06:16:19;;;;;;;4.10;1.77;;;;;;;15.05;100.00;99394.16;5173707;27;20058;-51
2022/09/09 06:18:47;;;;;;;3.33;1.52;;;;;;;15.78;100.00;99465.78;5173819;27;20067;-54
2022/09/09 06:21:16;;;;;;;3.15;1.30;;;;;;;14.53;100.00;99416.38;5173701;27;20081;-55
2022/09/09 06:23:43;;;;;;;2.38;1.02;;;;;;;15.09;100.00;99394.16;5173719;27;20054;-54
2022/09/09 06:26:12;;;;;;;4.55;1.40;;;;;;;16.75;100.00;99436.13;5173504;27;20417;-55
2022/09/09 06:28:38;;;;;;;2.88;1.00;;;;;;;15.43;100.00;99485.81;5173682;27;20046;-53
2022/09/09 06:31:09;;;;;;;1.08;1.00;;;;;;;15.82;100.00;99474.88;5173795;27;20050;-52
2022/09/09 06:33:39;;;;;;;3.05;1.50;;;;;;;16.20;100.00;99462.28;5173374;27;20050;-54
2022/09/09 06:36:06;;;;;;;2.75;0.93;;;;;;;17.36;100.00;99524.53;5173398;27;20117;-53
2022/09/09 06:38:33;;;;;;;1.15;0.95;;;;;;;17.30;100.00;99540.03;5173642;27;20050;-51
2022/09/09 06:41:00;;;;;;;3.55;1.10;;;;;;;15.37;100.00;99520.53;5173349;27;20046;-53
2022/09/09 06:43:26;;;;;;;1.33;0.90;;;;;;;15.13;100.00;99459.28;5173651;27;20069;-54
2022/09/09 06:45:56;;;;;;;3.22;1.35;;;;;;;15.12;100.00;99451.38;5173502;27;20054;-50
2022/09/09 06:48:23;;;;;;;2.42;1.00;;;;;;;14.64;100.00;99434.97;5173088;27;20046;-50
2022/09/09 06:50:50;;;;;;;4.18;1.17;;;;;;;14.62;100.00;99416.03;5173077;27;20042;-52
2022/09/09 06:53:18;;;;;;;1.60;0.98;;;;;;;16.01;100.00;99459.91;5173071;27;20106;-55
2022/09/09 06:55:45;;;;;;;11.65;1.27;;;;;;;17.61;100.00;99530.00;5172974;27;20050;-51
2022/09/09 06:58:12;;;;;;;1.17;0.93;;;;;;;17.92;100.00;99563.53;5172984;27;20050;-54
2022/09/09 07:00:38;;;;;;;1.10;1.10;;;;;;;15.36;100.00;99510.63;5173148;27;20071;-53
2022/09/09 07:03:05;;;;;;;1.17;1.00;;;;;;;16.36;100.00;99491.50;5173151;27;20129;-53
2022/09/09 07:05:31;;;;;;;2.70;1.20;;;;;;;15.86;100.00;99492.28;5173127;27;20454;-54
2022/09/09 07:07:58;;;;;;;3.58;1.25;;;;;;;15.70;100.00;99486.31;5172143;27;20047;-52
2022/09/09 07:10:24;;;;;;;1.73;0.90;;;;;;;15.85;100.00;99485.16;5172934;27;20042;-51
2022/09/09 07:12:52;;;;;;;1.05;0.93;;;;;;;15.04;100.00;99467.91;5172975;27;20042;-53
2022/09/09 07:15:19;;;;;;;1.15;1.00;;;;;;;14.70;100.00;99425.94;5172683;27;20497;-52
2022/09/09 07:17:46;;;;;;;1.48;1.02;;;;;;;15.28;100.00;99438.00;5172954;27;20542;-51
2022/09/09 07:20:14;;;;;;;0.82;0.80;;;;;;;15.71;100.00;99479.59;5172553;27;20042;-54
2022/09/09 07:22:40;;;;;;;4.65;0.93;;;;;;;15.33;100.00;99478.25;5173208;27;20046;-52
2022/09/09 07:25:08;;;;;;;8.07;1.13;;;;;;;14.82;100.00;99455.94;5172886;27;20053;-54
2022/09/09 07:27:34;;;;;;;2.15;1.50;;;;;;;14.62;100.00;99440.88;5172886;27;20545;-53
2022/09/09 07:30:02;;;;;;;3.22;1.58;;;;;;;14.61;100.00;99439.28;5172444;27;20054;-52
2022/09/09 07:32:30;;;;;;;1.50;1.17;;;;;;;15.60;100.00;99481.53;5172545;27;20046;-50
2022/09/09 07:34:57;;;;;;;5.82;0.90;;;;;;;16.80;100.00;99504.16;5172525;27;20389;-53
2022/09/09 07:37:24;;;;;;;4.57;0.90;;;;;;;16.50;100.00;99552.41;5172759;27;20069;-53
2022/09/09 07:39:51;;;;;;;2.78;0.85;;;;;;;15.69;100.00;99510.41;5172503;27;20077;-53
2022/09/09 07:42:19;;;;;;;2.80;0.70;;;;;;;16.71;100.00;99526.66;5172584;27;20046;-52
2022/09/09 07:44:45;;;;;;;0.90;0.85;;;;;;;15.87;100.00;99515.19;5172338;27;20050;-54
2022/09/09 07:47:11;;;;;;;2.35;0.90;;;;;;;17.97;100.00;99538.16;5172303;27;20046;-53
2022/09/09 07:49:37;;;;;;;0.80;0.80;;;;;;;17.79;100.00;99585.38;5172326;27;20094;-52
2022/09/09 07:52:03;;;;;;;1.77;0.70;;;;;;;17.87;100.00;99592.50;5172729;27;20046;-54
2022/09/09 07:54:30;;;;;;;1.95;0.77;;;;;;;18.69;100.00;99596.69;5172161;27;20505;-53
2022/09/09 07:56:56;;;;;;;1.92;1.27;;;;;;;17.61;100.00;99590.97;5172191;27;20418;-54
2022/09/09 07:59:24;;;;;;;3.75;0.80;;;;;;;17.29;100.00;99569.69;5172301;27;20421;-54
2022/09/09 08:01:54;;;;;;;0.85;0.80;;;;;;;17.17;100.00;99581.22;5172112;27;20046;-51
2022/09/09 08:04:22;;;;;;;0.70;0.70;;;;;;;16.98;100.00;99556.72;5172019;27;20437;-50
2022/09/09 08:06:52;;;;;;;3.13;0.90;;;;;;;17.84;100.00;99579.44;5172286;27;20050;-50
2022/09/09 08:09:20;;;;;;;1.77;1.23;;;;;;;18.46;100.00;99572.28;5171872;27;20088;-50
2022/09/09 08:11:46;;;;;;;1.27;0.90;;;;;;;19.93;95.75;99616.91;5172079;27;20046;-55
2022/09/09 08:14:13;;;;;;;2.97;1.63;;;;;;;18.97;100.00;99601.25;5172005;27;20053;-52
2022/09/09 08:16:42;;;;;;;3.33;1.00;;;;;;;18.02;100.00;99599.53;5171822;27;20050;-50
2022/09/09 08:19:09;;;;;;;3.50;0.80;;;;;;;16.76;100.00;99554.00;5173838;27;20140;-51
2022/09/09 08:21:38;;;;;;;6.80;0.80;;;;;;;16.40;100.00;99550.41;5175685;27;20514;-54
2022/09/09 08:24:05;;;;;;;1.35;0.70;;;;;;;16.67;100.00;99534.19;5175546;27;20046;-50
2022/09/09 08:26:34;;;;;;;2.55;0.80;;;;;;;15.86;100.00;99544.00;5175761;27;20057;-52
2022/09/09 08:29:01;;;;;;;3.42;0.68;;;;;;;16.41;100.00;99527.88;5175544;27;20042;-53
2022/09/09 08:31:30;;;;;;;0.73;0.60;;;;;;;16.03;100.00;99523.91;5175458;27;20070;-54
2022/09/09 08:33:59;;;;;;;1.10;0.70;;;;;;;16.65;100.00;99553.94;5175726;27;20514;-53
2022/09/09 08:36:26;;;;;;;0.55;0.50;;;;;;;15.46;100.00;99551.31;5175528;27;20066;-54
2022/09/09 08:38:55;;;;;;;3.42;0.65;;;;;;;15.40;100.00;99539.88;5175366;27;20069;-54
2022/09/09 08:41:50;;;;;;;1.55;0.70;;;;;;;15.34;100.00;99522.09;5175245;27;20042;-51
2022/09/09 08:44:29;;;;;;;0.65;0.65;;;;;;;15.78;100.00;99529.38;5175226;27;20061;-53
2022/09/09 08:47:01;;;;;;;3.83;1.25;;;;;;;15.19;100.00;99487.28;5175171;27;20043;-53
2022/09/09 08:49:49;;;;;;;1.00;0.68;;;;;;;14.78;100.00;99481.97;5175221;27;20050;-50
2022/09/09 08:52:19;;;;;;;7.60;1.30;;;;;;;14.70;100.00;99489.41;5175095;27;20050;-53
2022/09/09 08:54:47;;;;;;;2.25;1.10;;;;;;;14.99;100.00;99490.34;5175126;27;20052;-53
2022/09/09 08:57:18;;;;;;;2.58;0.80;;;;;;;15.41;100.00;99516.59;5175203;27;20532;-53
2022/09/09 08:59:45;;;;;;;2.17;1.00;;;;;;;15.51;100.00;99499.25;5175100;27;20053;-51
2022/09/09 09:02:21;;;;;;;1.00;0.57;;;;;;;15.17;100.00;99495.97;5175143;27;20050;-51
2022/09/09 09:05:04;;;;;;;6.70;1.23;;;;;;;15.49;100.00;99518.22;5175092;27;20058;-51
2022/09/09 09:07:43;;;;;;;3.72;0.98;;;;;;;15.18;100.00;99499.53;5175026;27;20054;-50
2022/09/09 09:10:17;;;;;;;1.38;0.60;;;;;;;15.48;100.00;99516.59;5174975;27;20421;-53
2022/09/09 09:12:44;;;;;;;;;;;;;;;15.90;100.00;99533.75;5175065;27;20156;-52
2022/09/09 09:15:18;;;;;;;3.70;0.63;;;;;;;16.31;100.00;99570.16;5174692;27;19929;-52
2022/09/09 09:17:44;;;;;;;0.95;0.80;;;;;;;16.69;100.00;99551.19;5174826;27;20092;-54
2022/09/09 09:20:14;;;;;;;7.00;0.68;;;;;;;16.21;100.00;99566.19;5174759;27;20046;-52
2022/09/09 09:22:48;;;;;;;6.45;0.63;;;;;;;16.52;100.00;99544.47;5174950;27;20054;-55
2022/09/09 09:25:18;;;;;;;6.93;0.73;;;;;;;16.10;100.00;99540.50;5174954;27;20050;-52
2022/09/09 09:27:51;;;;;;;1.15;0.70;;;;;;;16.74;100.00;99550.78;5174567;27;20283;-54
2022/09/09 09:30:20;;;;;;;10.13;0.85;;;;;;;15.18;100.00;99524.38;5174639;27;20042;-53
2022/09/09 09:32:54;;;;;;;0.60;0.50;;;;;;;15.27;100.00;99511.00;5174628;27;20053;-53
2022/09/09 09:35:21;;;;;;;4.30;0.77;;;;;;;16.09;100.00;99522.31;5174573;27;20046;-50
2022/09/09 09:37:48;;;;;;;0.85;0.60;;;;;;;16.32;100.00;99541.31;5174555;27;20042;-54
2022/09/09 09:40:16;;;;;;;1.05;0.60;;;;;;;16.28;100.00;99554.34;5174951;27;20455;-53
2022/09/09 09:42:49;;;;;;;1.35;0.70;;;;;;;17.00;100.00;99551.59;5174715;27;20053;-54
2022/09/09 09:45:28;;;;;;;1.30;0.68;;;;;;;16.57;100.00;99559.91;5174593;27;20054;-52
2022/09/09 09:48:02;;;;;;;3.90;0.60;;;;;;;16.34;100.00;99543.69;5174341;27;20049;-53
2022/09/09 09:50:31;;;;;;;0.65;0.60;;;;;;;17.08;100.00;99547.59;5174383;27;20049;-54
2022/09/09 09:53:01;;;;;;;0.95;0.68;;;;;;;16.57;100.00;99552.38;5174499;27;20091;-53
2022/09/09 09:55:31;;;;;;;2.70;0.75;;;;;;;16.60;100.00;99548.84;5174420;27;20077;-53
2022/09/09 09:58:03;;;;;;;0.57;0.57;;;;;;;16.52;100.00;99555.53;5174707;27;20048;-51
2022/09/09 10:00:30;;;;;;;0.85;0.77;;;;;;;16.02;100.00;99546.41;5174305;27;20050;-54
2022/09/09 10:02:56;;;;;;;5.80;0.80;;;;;;;15.16;100.00;99537.78;5173998;27;20085;-54
2022/09/09 10:05:25;;;;;;;0.82;0.70;;;;;;;15.19;100.00;99528.72;5174221;27;20094;-52
2022/09/09 10:08:05;;;;;;;2.30;0.80;;;;;;;15.50;100.00;99519.00;5174145;27;20042;-53
2022/09/09 10:10:47;;;;;;;6.30;1.00;;;;;;;16.18;100.00;99536.56;5174368;27;20394;-53
2022/09/09 10:13:21;;;;;;;0.98;0.98;;;;;;;15.99;100.00;99540.50;5174051;27;20042;-50
2022/09/09 10:15:58;;;;;;;2.30;0.60;;;;;;;15.87;99.13;99559.41;5174611;27;20046;-53
2022/09/09 10:18:45;;;;;;;3.25;0.77;;;;;;;14.92;100.00;99575.88;5173916;27;20082;-54
2022/09/09 10:21:26;;;;;;;1.00;0.70;;;;;;;14.75;100.00;99560.00;5173705;27;20082;-52
2022/09/09 10:24:08;;;;;;;0.65;0.50;;;;;;;14.65;100.00;99555.19;5173811;27;20102;-51
2022/09/09 10:26:45;;;;;;;0.82;0.40;;;;;;;14.41;100.00;99543.56;5173629;27;20089;-50
2022/09/09 10:29:24;;;;;;;1.67;0.70;;;;;;;14.01;100.00;99530.59;5173783;27;20505;-53
2022/09/09 10:32:04;;;;;;;0.65;0.60;;;;;;;14.38;100.00;99546.28;5173514;27;20042;-50
2022/09/09 10:34:48;;;;;;;1.50;0.63;;;;;;;14.23;100.00;99534.31;5173295;27;20054;-57
2022/09/09 10:37:25;;;;;;;4.13;0.85;;;;;;;14.43;100.00;99538.47;5173679;27;20049;-54
2022/09/09 10:40:01;;;;;;;1.48;0.90;;;;;;;14.79;100.00;99534.03;5171654;27;20046;-56
2022/09/09 10:42:31;;;;;;;6.05;1.15;;;;;;;14.50;100.00;99548.75;5172207;27;20098;-56
2022/09/09 10:45:15;;;;;;;0.50;0.50;;;;;;;15.29;100.00;99547.31;5173619;27;20046;-55
2022/09/09 10:47:53;;;;;;;;;;;;;;;14.81;100.00;99559.25;5173986;27;20047;-57
2022/09/09 10:50:34;;;;;;;2.78;1.17;;;;;;;14.90;100.00;99552.63;5173113;27;19922;-53
2022/09/09 10:53:08;;;;;;;6.35;0.98;;;;;;;15.09;100.00;99555.09;5173331;27;20053;-55
2022/09/09 10:55:41;;;;;;;2.55;0.63;;;;;;;15.50;98.30;99575.06;5173118;27;20413;-57
2022/09/09 10:58:15;;;;;;;4.10;0.70;;;;;;;15.14;99.29;99565.00;5173411;27;20417;-56
2022/09/09 11:00:45;;;;;;;4.10;0.63;;;;;;;14.83;100.00;99559.69;5173167;27;20077;-54
2022/09/09 11:03:16;;;;;;;4.07;0.50;;;;;;;14.40;100.00;99568.78;5173279;27;20077;-50
2022/09/09 11:05:44;;;;;;;0.50;0.50;;;;;;;14.60;100.00;99570.16;5173063;27;20054;-54
2022/09/09 11:08:15;;;;;;;3.38;0.50;;;;;;;14.88;99.01;99560.50;5173028;27;20078;-50
2022/09/09 11:10:46;;;;;;;0.55;0.40;;;;;;;14.69;99.35;99558.78;5173363;27;20413;-52
2022/09/09 11:13:20;;;;;;;2.83;0.63;;;;;;;14.99;99.00;99572.38;5172981;27;20043;-55
2022/09/09 11:15:51;;;;;;;4.47;0.40;;;;;;;14.42;100.00;99564.44;5173052;27;20603;-53
2022/09/09 11:18:21;;;;;;;5.95;0.73;;;;;;;14.77;99.57;99571.47;5172890;27;20378;-53
2022/09/09 11:20:49;;;;;;;4.65;0.43;;;;;;;15.12;99.80;99565.38;5172783;27;20056;-55
2022/09/09 11:23:21;;;;;;;2.00;0.40;;;;;;;14.78;100.00;99565.53;5172725;27;20064;-54
2022/09/09 11:25:52;;;;;;;0.73;0.60;;;;;;;14.46;99.46;99578.25;5172968;27;20480;-53
2022/09/09 11:28:42;;;;;;;1.00;0.50;;;;;;;14.79;100.00;99566.34;5172531;27;20042;-53
2022/09/09 11:31:22;;;;;;;2.78;0.52;;;;;;;14.39;100.00;99564.41;5172512;27;20144;-52
2022/09/09 11:34:08;;;;;;;2.83;0.80;;;;;;;14.54;100.00;99552.38;5172816;27;20046;-52
2022/09/09 11:36:49;;;;;;;5.45;0.60;;;;;;;14.14;100.00;99542.91;5172404;27;20133;-51
2022/09/09 11:39:43;;;;;;;6.45;0.75;;;;;;;14.12;100.00;99528.72;5172815;27;20073;-54